createdAt,value
2018-09-19T02:38:47.281Z,58.80
2018-09-19T02:41:14.854Z,63.30
2018-09-19T02:43:42.338Z,63.70
2018-09-19T02:46:09.943Z,64.20
2018-09-19T02:48:37.557Z,64.70
2018-09-19T02:51:05.207Z,65.50
2018-09-19T02:53:32.673Z,66.10
2018-09-19T02:56:00.227Z,65.80
2018-09-19T02:58:27.733Z,66.10
2018-09-19T03:00:55.359Z,66.10
2018-09-19T03:03:22.844Z,66.30
2018-09-19T03:05:50.490Z,66.40
2018-09-19T03:08:18.005Z,66.40
2018-09-19T03:10:45.551Z,66.70
2018-09-19T03:13:13.033Z,66.90
2018-09-19T03:15:40.582Z,67.60
2018-09-19T03:18:08.128Z,68.00
2018-09-19T03:20:35.634Z,67.70
2018-09-19T03:23:03.253Z,68.00
2018-09-19T03:25:30.715Z,67.80
2018-09-19T03:27:58.307Z,68.00
2018-09-19T03:30:25.880Z,68.00
2018-09-19T03:32:53.470Z,67.90
2018-09-19T03:35:20.996Z,67.70
2018-09-19T03:37:48.502Z,67.80
2018-09-19T03:40:16.005Z,68.00
2018-09-19T03:42:43.604Z,67.40
2018-09-19T03:45:11.102Z,67.80
2018-09-19T03:47:38.650Z,68.00
2018-09-19T03:50:06.201Z,68.10
2018-09-19T03:52:33.748Z,68.20
2018-09-19T03:55:01.494Z,68.40
2018-09-19T03:57:29.505Z,68.30
2018-09-19T03:59:57.051Z,68.60
2018-09-19T04:02:24.550Z,68.60
2018-09-19T04:04:52.374Z,68.60
2018-09-19T04:07:19.866Z,68.90
2018-09-19T04:09:47.504Z,69.50
2018-09-19T04:12:14.957Z,69.20
2018-09-19T04:14:42.509Z,69.60
2018-09-19T04:17:09.998Z,69.60
2018-09-19T04:19:37.584Z,69.70
2018-09-19T04:22:05.226Z,69.80
2018-09-19T04:24:32.814Z,69.90
2018-09-19T04:27:00.333Z,70.10
2018-09-19T04:29:27.846Z,70.20
2018-09-19T04:31:55.453Z,70.20
2018-09-19T04:34:27.030Z,70.00
2018-09-19T04:36:55.863Z,70.20
2018-09-19T04:39:29.530Z,70.40
2018-09-19T04:41:57.578Z,70.90
2018-09-19T04:44:25.078Z,70.90
2018-09-19T04:46:53.986Z,70.80
2018-09-19T04:49:22.803Z,70.90
2018-09-19T04:52:01.072Z,70.90
2018-09-19T04:54:42.570Z,70.80
2018-09-19T04:57:11.519Z,70.90
2018-09-19T04:59:40.079Z,71.30
2018-09-19T05:02:07.738Z,71.30
2018-09-19T05:07:10.105Z,70.90
2018-09-19T05:09:38.888Z,71.50
2018-09-19T05:12:08.073Z,71.70
2018-09-19T05:14:36.651Z,71.80
2018-09-19T05:17:07.037Z,72.90
2018-09-19T05:19:35.481Z,72.90
2018-09-19T05:22:04.134Z,72.60
2018-09-19T05:24:32.502Z,72.50
2018-09-19T05:27:00.037Z,72.40
2018-09-19T05:29:28.760Z,72.80
2018-09-19T05:31:57.315Z,72.60
2018-09-19T05:34:25.365Z,72.90
2018-09-19T05:36:53.849Z,72.70
2018-09-19T05:39:23.347Z,72.90
2018-09-19T05:41:51.955Z,73.10
2018-09-19T05:44:22.104Z,73.20
2018-09-19T05:46:51.592Z,73.10
2018-09-19T05:49:21.379Z,73.10
2018-09-19T05:54:18.531Z,72.30
2018-09-19T05:56:47.169Z,73.20
2018-09-19T05:59:17.145Z,73.10
2018-09-19T06:01:46.702Z,73.70
2018-09-19T06:04:16.675Z,74.50
2018-09-19T06:06:45.862Z,74.30
2018-09-19T06:09:18.639Z,74.70
2018-09-19T06:11:48.578Z,74.60
2018-09-19T06:14:18.657Z,75.40
2018-09-19T06:16:49.559Z,75.20
2018-09-19T06:19:20.556Z,74.90
2018-09-19T06:21:50.639Z,74.80
2018-09-19T06:24:21.331Z,74.80
2018-09-19T06:26:51.546Z,74.90
2018-09-19T06:29:21.030Z,74.60
2018-09-19T06:31:50.326Z,74.70
2018-09-19T06:34:18.950Z,74.50
2018-09-19T06:36:47.323Z,74.70
2018-09-19T06:39:16.721Z,74.70
2018-09-19T06:41:44.358Z,75.10
2018-09-19T06:44:12.631Z,74.80
2018-09-19T06:46:40.279Z,74.40
2018-09-19T06:49:08.509Z,74.30
2018-09-19T06:51:36.769Z,74.50
2018-09-19T06:54:04.349Z,74.50
2018-09-19T06:56:32.279Z,74.00
2018-09-19T06:58:59.865Z,73.20
2018-09-19T07:01:27.799Z,73.80
2018-09-19T07:03:56.414Z,73.60
2018-09-19T07:06:24.355Z,73.20
2018-09-19T07:08:51.931Z,73.70
2018-09-19T07:11:20.310Z,73.20
2018-09-19T07:13:48.055Z,73.50
2018-09-19T07:16:15.606Z,72.50
2018-09-19T07:18:43.281Z,72.50
2018-09-19T07:21:11.265Z,72.50
2018-09-19T07:23:39.285Z,72.90
2018-09-19T07:26:06.929Z,72.80
2018-09-19T07:28:34.614Z,73.30
2018-09-19T07:31:02.648Z,72.80
2018-09-19T07:33:30.212Z,73.10
2018-09-19T07:35:57.754Z,73.60
2018-09-19T07:38:25.399Z,73.10
2018-09-19T07:40:53.197Z,72.30
2018-09-19T07:43:20.857Z,72.00
2018-09-19T07:45:48.520Z,71.90
2018-09-19T07:48:16.212Z,71.00
2018-09-19T07:50:44.439Z,71.50
2018-09-19T07:53:13.292Z,72.30
2018-09-19T07:55:43.452Z,71.60
2018-09-19T07:58:12.826Z,71.30
2018-09-19T08:00:41.371Z,71.50
2018-09-19T08:03:11.191Z,70.90
2018-09-19T08:05:42.478Z,70.60
2018-09-19T08:08:12.465Z,70.80
2018-09-19T08:10:42.087Z,70.10
2018-09-19T08:13:11.972Z,69.50
2018-09-19T08:15:40.478Z,69.50
2018-09-19T08:18:10.298Z,69.40
2018-09-19T08:20:41.378Z,69.30
2018-09-19T08:23:11.205Z,68.40
2018-09-19T08:25:42.634Z,67.90
2018-09-19T08:28:15.457Z,67.40
2018-09-19T08:30:45.857Z,68.80
2018-09-19T08:33:13.915Z,67.30
2018-09-19T08:35:47.544Z,67.20
2018-09-19T08:38:17.022Z,66.60
2018-09-19T08:40:50.399Z,66.30
2018-09-19T08:43:19.661Z,66.10
2018-09-19T08:45:53.687Z,66.90
2018-09-19T08:48:25.971Z,66.30
2018-09-19T08:50:59.056Z,65.00
2018-09-19T08:56:03.029Z,61.90
2018-09-19T08:58:38.330Z,62.80
2018-09-19T09:01:10.682Z,62.60
2018-09-19T09:03:42.797Z,62.80
2018-09-19T09:06:16.562Z,60.50
2018-09-19T09:08:50.862Z,58.80
2018-09-19T09:11:23.861Z,58.40
2018-09-19T09:13:57.078Z,57.90
2018-09-19T09:16:29.529Z,56.30
2018-09-19T09:18:59.610Z,56.20
2018-09-19T09:21:33.157Z,55.00
2018-09-19T09:24:03.828Z,54.10
2018-09-19T09:26:33.025Z,54.80
2018-09-19T09:29:03.466Z,54.20
2018-09-19T09:31:36.460Z,53.20
2018-09-19T09:34:09.003Z,54.50
2018-09-19T09:36:38.662Z,53.90
2018-09-19T09:39:06.642Z,53.50
2018-09-19T09:41:35.887Z,53.70
2018-09-19T09:44:05.197Z,53.10
2018-09-19T09:46:36.335Z,52.60
2018-09-19T09:49:07.586Z,53.40
2018-09-19T09:51:37.548Z,51.90
2018-09-19T09:54:09.356Z,53.10
2018-09-19T09:56:42.355Z,52.50
2018-09-19T09:59:11.490Z,52.10
2018-09-19T10:01:41.618Z,52.50
2018-09-19T10:04:14.332Z,52.80
2018-09-19T10:06:43.036Z,52.20
2018-09-19T10:09:13.656Z,52.40
2018-09-19T10:11:43.000Z,51.20
2018-09-19T10:14:11.902Z,52.40
2018-09-19T10:16:41.939Z,52.50
2018-09-19T10:19:12.532Z,53.70
2018-09-19T10:21:41.958Z,53.20
2018-09-19T10:24:12.755Z,50.60
2018-09-19T10:26:41.943Z,51.00
2018-09-19T10:29:18.852Z,51.60
2018-09-19T10:31:47.263Z,52.70
2018-09-19T10:34:16.575Z,51.70
2018-09-19T10:36:45.227Z,51.30
2018-09-19T10:41:44.427Z,49.00
2018-09-19T10:44:14.416Z,50.50
2018-09-19T10:46:43.610Z,49.30
2018-09-19T10:49:12.476Z,49.80
2018-09-19T10:51:43.832Z,48.90
2018-09-19T10:54:15.117Z,48.50
2018-09-19T10:56:43.506Z,48.20
2018-09-19T11:01:44.745Z,46.40
2018-09-19T11:04:18.399Z,46.00
2018-09-19T11:06:50.349Z,46.90
2018-09-19T11:09:24.890Z,46.10
2018-09-19T11:12:01.338Z,46.40
2018-09-19T11:14:32.723Z,46.50
2018-09-19T11:17:06.436Z,48.40
2018-09-19T11:47:11.109Z,43.30
2018-09-19T11:49:42.335Z,43.90
2018-09-19T11:52:13.417Z,44.30
2018-09-19T11:54:45.514Z,45.30
2018-09-19T11:57:15.980Z,43.10
2018-09-19T11:59:46.654Z,42.70
2018-09-19T12:02:17.894Z,44.50
2018-09-19T12:04:48.442Z,42.50
2018-09-19T12:07:18.710Z,42.60
2018-09-19T12:09:47.936Z,42.50
2018-09-19T12:12:20.060Z,42.50
2018-09-19T12:14:49.667Z,41.60
2018-09-19T12:17:24.119Z,42.40
2018-09-19T12:19:57.399Z,41.80
2018-09-19T12:22:27.588Z,42.50
2018-09-19T12:24:57.283Z,41.30
2018-09-19T12:27:27.607Z,41.50
2018-09-19T12:29:57.065Z,42.90
2018-09-19T12:32:28.870Z,42.60
2018-09-19T12:35:00.239Z,42.40
2018-09-19T12:37:29.308Z,42.20
2018-09-19T12:40:11.962Z,41.70
2018-09-19T12:42:49.481Z,42.80
2018-09-19T12:45:19.999Z,40.00
2018-09-19T12:47:52.192Z,41.10
2018-09-19T12:50:21.528Z,39.60
2018-09-19T12:52:49.077Z,41.10
2018-09-19T12:55:16.701Z,41.70
2018-09-19T12:57:44.243Z,40.00
2018-09-19T13:00:11.855Z,40.60
2018-09-19T13:02:39.397Z,40.70
2018-09-19T13:05:07.109Z,41.30
2018-09-19T13:07:34.635Z,40.90
2018-09-19T13:10:02.228Z,40.80
2018-09-19T13:12:29.794Z,39.10
2018-09-19T13:14:57.310Z,40.60
2018-09-19T13:17:24.950Z,40.00
2018-09-19T13:19:52.477Z,38.70
2018-09-19T13:22:20.049Z,39.00
2018-09-19T13:24:47.549Z,40.00
2018-09-19T13:27:15.137Z,39.40
2018-09-19T13:29:42.646Z,39.80
2018-09-19T13:32:10.209Z,39.80
2018-09-19T13:34:37.751Z,41.30
2018-09-19T13:37:05.326Z,41.00
2018-09-19T13:39:32.915Z,40.50
2018-09-19T13:42:00.885Z,40.40
2018-09-19T13:44:28.447Z,41.00
2018-09-19T13:46:56.065Z,41.40
2018-09-19T13:49:36.718Z,40.70
2018-09-19T13:52:04.388Z,42.60
2018-09-19T13:54:31.925Z,40.90
2018-09-19T13:56:59.480Z,42.10
2018-09-19T13:59:27.062Z,40.40
2018-09-19T14:01:54.616Z,40.70
2018-09-19T14:04:22.326Z,39.60
2018-09-19T14:06:49.889Z,39.90
2018-09-19T14:09:17.470Z,40.40
2018-09-19T14:11:45.074Z,37.70
2018-09-19T14:14:12.621Z,38.00
2018-09-19T14:16:40.156Z,38.90
2018-09-19T14:19:08.493Z,39.30
2018-09-19T14:21:36.071Z,37.60
2018-09-19T14:24:03.740Z,37.60
2018-09-19T14:26:31.316Z,38.80
2018-09-19T14:28:58.960Z,38.50
2018-09-19T14:31:26.488Z,38.00
2018-09-19T14:33:54.074Z,38.60
2018-09-19T14:36:21.597Z,39.50
2018-09-19T14:38:49.251Z,39.10
2018-09-19T14:41:16.848Z,39.40
2018-09-19T14:43:44.439Z,38.40
2018-09-19T14:46:12.021Z,38.50
2018-09-19T14:48:39.701Z,38.30
2018-09-19T14:51:07.261Z,37.40
2018-09-19T14:53:34.952Z,38.30
2018-09-19T14:56:02.674Z,38.20
2018-09-19T14:58:30.238Z,38.60
2018-09-19T15:00:57.806Z,37.80
2018-09-19T15:03:25.390Z,37.60
2018-09-19T15:05:53.078Z,38.20
2018-09-19T15:08:20.651Z,39.60
2018-09-19T15:10:48.287Z,37.90
2018-09-19T15:13:15.758Z,38.80
2018-09-19T15:15:43.359Z,38.20
2018-09-19T15:18:10.915Z,38.60
2018-09-19T15:20:38.544Z,38.70
2018-09-19T15:23:06.142Z,39.20
2018-09-19T15:25:33.737Z,39.30
2018-09-19T15:28:01.590Z,39.00
2018-09-19T15:30:29.122Z,38.80
2018-09-19T15:32:56.699Z,39.10
2018-09-19T15:35:24.209Z,39.50
2018-09-19T15:37:51.872Z,40.20
2018-09-19T15:40:19.427Z,39.70
2018-09-19T15:42:47.068Z,40.90
2018-09-19T15:45:14.621Z,41.20
2018-09-19T15:47:42.269Z,39.50
2018-09-19T15:50:09.808Z,40.40
2018-09-19T15:52:37.418Z,40.50
2018-09-19T15:55:04.931Z,40.10
2018-09-19T15:57:32.571Z,40.80
2018-09-19T16:00:00.377Z,41.40
2018-09-19T16:02:28.009Z,41.50
2018-09-19T16:04:55.652Z,41.90
2018-09-19T16:07:23.277Z,41.60
2018-09-19T16:09:50.833Z,41.50
2018-09-19T16:12:18.462Z,41.50
2018-09-19T16:14:45.986Z,42.20
2018-09-19T16:17:13.610Z,42.60
2018-09-19T16:19:41.139Z,42.20
2018-09-19T16:22:08.649Z,42.20
2018-09-19T16:24:36.218Z,42.40
2018-09-19T16:27:03.871Z,42.20
2018-09-19T16:29:31.463Z,41.40
2018-09-19T16:31:59.199Z,42.00
2018-09-19T16:34:26.758Z,42.70
2018-09-19T16:36:54.310Z,42.40
2018-09-19T16:39:21.927Z,42.40
2018-09-19T16:41:49.443Z,42.80
2018-09-19T16:44:17.258Z,42.70
2018-09-19T16:46:44.793Z,42.60
2018-09-19T16:49:12.469Z,43.40
2018-09-19T16:51:40.021Z,43.20
2018-09-19T16:54:07.642Z,43.30
2018-09-19T16:56:35.175Z,43.80
2018-09-19T16:59:02.806Z,43.80
2018-09-19T17:01:30.301Z,44.00
2018-09-19T17:03:58.415Z,44.40
2018-09-19T17:06:26.132Z,43.90
2018-09-19T17:08:53.663Z,44.10
2018-09-19T17:11:21.282Z,44.50
2018-09-19T17:13:48.818Z,44.90
2018-09-19T17:16:17.003Z,44.80
2018-09-19T17:18:45.760Z,44.40
2018-09-19T17:21:13.354Z,45.10
2018-09-19T17:23:40.885Z,45.60
2018-09-19T17:26:08.483Z,45.80
2018-09-19T17:28:36.074Z,45.80
2018-09-19T17:31:03.699Z,45.90
2018-09-19T17:33:31.311Z,46.10
2018-09-19T17:35:59.758Z,46.20
2018-09-19T17:38:27.291Z,46.30
2018-09-19T17:40:57.479Z,46.70
2018-09-19T17:43:25.490Z,46.90
2018-09-19T17:45:54.388Z,47.10
2018-09-19T17:48:24.639Z,47.30
2018-09-19T17:50:53.049Z,47.90
2018-09-19T17:53:20.827Z,48.00
2018-09-19T17:55:48.440Z,47.80
2018-09-19T17:58:16.175Z,47.90
2018-09-19T18:00:44.122Z,48.30
2018-09-19T18:03:12.923Z,48.80
2018-09-19T18:05:42.947Z,48.80
2018-09-19T18:08:11.983Z,49.00
2018-09-19T18:10:42.847Z,49.60
2018-09-19T18:13:10.781Z,50.00
2018-09-19T18:15:38.972Z,50.40
2018-09-19T18:18:07.191Z,50.30
2018-09-19T18:20:34.869Z,50.30
2018-09-19T18:23:04.034Z,50.30
2018-09-19T18:25:31.670Z,50.30
2018-09-19T18:27:59.321Z,50.40
2018-09-19T18:30:27.083Z,50.60
2018-09-19T18:32:54.728Z,50.60
2018-09-19T18:35:22.404Z,50.90
2018-09-19T18:37:50.029Z,51.50
2018-09-19T18:40:17.777Z,51.70
2018-09-19T18:42:45.342Z,51.80
2018-09-19T18:45:13.000Z,51.90
2018-09-19T18:47:40.596Z,52.20
2018-09-19T18:50:08.922Z,52.20
2018-09-19T18:52:36.932Z,52.40
2018-09-19T18:55:04.554Z,52.40
2018-09-19T18:57:32.159Z,52.40
2018-09-19T18:59:59.794Z,52.70
2018-09-19T19:02:27.395Z,52.60
2018-09-19T19:04:55.135Z,52.70
2018-09-19T19:07:22.740Z,52.70
2018-09-19T19:09:50.357Z,53.20
2018-09-19T19:12:18.006Z,53.00
2018-09-19T19:14:45.602Z,53.20
2018-09-19T19:17:13.262Z,53.20
2018-09-19T19:19:40.933Z,53.40
2018-09-19T19:22:08.571Z,53.70
2018-09-19T19:24:36.196Z,53.90
2018-09-19T19:27:03.862Z,53.70
2018-09-19T19:29:31.510Z,54.40
2018-09-19T19:31:59.131Z,54.00
2018-09-19T19:34:26.760Z,54.80
2018-09-19T19:36:54.338Z,54.50
2018-09-19T19:39:22.027Z,54.60
2018-09-19T19:41:49.624Z,54.60
2018-09-19T19:44:17.297Z,54.50
2018-09-19T19:46:44.964Z,54.50
2018-09-19T19:49:12.636Z,54.50
2018-09-19T19:51:40.183Z,54.80
2018-09-19T19:54:07.840Z,54.90
2018-09-19T19:56:35.477Z,54.90
2018-09-19T19:59:03.579Z,55.20
2018-09-19T20:01:31.187Z,55.40
2018-09-19T20:03:58.846Z,55.30
2018-09-19T20:06:26.492Z,55.40
2018-09-19T20:08:54.248Z,55.70
2018-09-19T20:11:21.949Z,55.80
2018-09-19T20:13:49.764Z,55.80
2018-09-19T20:16:17.395Z,55.90
2018-09-19T20:18:45.040Z,56.00
2018-09-19T20:21:12.626Z,56.20
2018-09-19T20:23:40.319Z,56.70
2018-09-19T20:26:07.890Z,56.50
2018-09-19T20:28:35.581Z,56.80
2018-09-19T20:31:03.180Z,56.90
2018-09-19T20:33:30.883Z,57.00
2018-09-19T20:35:58.521Z,56.80
2018-09-19T20:38:27.644Z,57.10
2018-09-19T20:40:55.883Z,57.00
2018-09-19T20:43:23.469Z,57.20
2018-09-19T20:45:51.893Z,57.30
2018-09-19T20:48:20.283Z,57.10
2018-09-19T20:50:48.535Z,57.40
2018-09-19T20:53:16.370Z,57.70
2018-09-19T20:55:44.339Z,57.70
2018-09-19T20:58:12.206Z,58.00
2018-09-19T21:00:40.342Z,58.00
2018-09-19T21:03:09.232Z,58.10
2018-09-19T21:05:37.506Z,58.20
2018-09-19T21:08:06.334Z,58.20
2018-09-19T21:10:34.530Z,58.10
2018-09-19T21:13:04.047Z,58.30
2018-09-19T21:15:31.702Z,58.60
2018-09-19T21:18:00.400Z,58.90
2018-09-19T21:20:29.683Z,58.90
2018-09-19T21:22:58.721Z,59.00
2018-09-19T21:25:27.349Z,60.50
2018-09-19T21:27:55.884Z,59.90
2018-09-19T21:30:25.405Z,59.90
2018-09-19T21:32:54.511Z,60.10
2018-09-19T21:35:22.517Z,60.10
2018-09-19T21:37:50.898Z,60.10
2018-09-19T21:40:19.236Z,60.60
2018-09-19T21:42:47.650Z,60.30
2018-09-19T21:45:16.634Z,60.20
2018-09-19T21:47:44.772Z,60.60
2018-09-19T21:50:13.443Z,60.70
2018-09-19T21:52:41.307Z,60.30
2018-09-19T21:55:09.296Z,60.60
2018-09-19T21:57:37.914Z,60.90
2018-09-19T22:00:06.946Z,61.10
2018-09-19T22:02:35.365Z,61.10
2018-09-19T22:05:03.463Z,61.00
2018-09-19T22:07:31.338Z,61.50
2018-09-19T22:09:59.772Z,61.50
2018-09-19T22:12:27.361Z,62.40
2018-09-19T22:14:55.062Z,62.00
2018-09-19T22:17:23.067Z,61.80
2018-09-19T22:19:51.049Z,62.40
2018-09-19T22:22:18.598Z,62.20
2018-09-19T22:24:46.351Z,62.00
2018-09-19T22:27:14.158Z,62.30
2018-09-19T22:29:42.056Z,62.30
2018-09-19T22:32:09.812Z,62.30
2018-09-19T22:34:37.500Z,63.00
2018-09-19T22:37:05.075Z,62.60
2018-09-19T22:39:32.721Z,62.90
2018-09-19T22:42:00.349Z,63.00
2018-09-19T22:44:28.587Z,63.20
2018-09-19T22:46:56.218Z,63.50
2018-09-19T22:49:23.938Z,63.70
2018-09-19T22:51:51.634Z,63.70
2018-09-19T22:54:19.173Z,63.60
2018-09-19T22:56:47.073Z,63.80
2018-09-19T22:59:14.646Z,64.30
2018-09-19T23:01:42.458Z,64.20
2018-09-19T23:04:09.963Z,64.50
2018-09-19T23:06:37.675Z,64.40
2018-09-19T23:09:06.526Z,64.80
2018-09-19T23:11:34.154Z,64.80
2018-09-19T23:14:02.014Z,64.60
2018-09-19T23:16:29.680Z,64.80
2018-09-19T23:18:57.207Z,65.00
2018-09-19T23:21:24.741Z,65.40
2018-09-19T23:23:52.330Z,65.40
2018-09-19T23:26:19.810Z,65.90
2018-09-19T23:28:47.374Z,65.90
2018-09-19T23:31:14.915Z,66.10
2018-09-19T23:33:42.463Z,66.00
2018-09-19T23:36:10.007Z,65.90
2018-09-19T23:38:37.658Z,66.40
2018-09-19T23:41:05.360Z,66.40
2018-09-19T23:43:32.915Z,66.50
2018-09-19T23:46:00.430Z,66.40
2018-09-19T23:48:28.075Z,67.00
2018-09-19T23:50:55.577Z,67.00
2018-09-19T23:53:23.153Z,67.00
2018-09-19T23:55:50.638Z,67.00
2018-09-19T23:58:18.222Z,67.00
